sensor_id;sensor_type;location;lat;lon;timestamp;pressure;altitude;pressure_sealevel;temperature;humidity
71384;BME280;67558;52.166;5.004;2023-04-09T00:02:27;102741.72;;;10.64;67.77
71384;BME280;67558;52.166;5.004;2023-04-09T00:04:53;102741.31;;;10.67;67.69
71384;BME280;67558;52.166;5.004;2023-04-09T00:07:24;102723.03;;;10.57;67.72
71384;BME280;67558;52.166;5.004;2023-04-09T00:09:50;102741.44;;;10.72;67.53
71384;BME280;67558;52.166;5.004;2023-04-09T00:15:12;102717.81;;;10.69;67.75
71384;BME280;67558;52.166;5.004;2023-04-09T00:17:38;102733.81;;;10.76;67.64
71384;BME280;67558;52.166;5.004;2023-04-09T00:23:40;102732.16;;;10.75;67.55
71384;BME280;67558;52.166;5.004;2023-04-09T00:26:06;102730.28;;;10.75;67.44
71384;BME280;67558;52.166;5.004;2023-04-09T00:28:31;102718.63;;;10.70;67.52
71384;BME280;67558;52.166;5.004;2023-04-09T00:30:59;102716.16;;;10.68;67.59
71384;BME280;67558;52.166;5.004;2023-04-09T00:36:36;102705.44;;;10.68;67.59
71384;BME280;67558;52.166;5.004;2023-04-09T00:39:09;102713.63;;;10.73;67.80
71384;BME280;67558;52.166;5.004;2023-04-09T00:41:59;102716.28;;;10.80;67.61
71384;BME280;67558;52.166;5.004;2023-04-09T00:48:10;102709.00;;;10.87;67.65
71384;BME280;67558;52.166;5.004;2023-04-09T00:50:56;102701.56;;;10.89;67.34
71384;BME280;67558;52.166;5.004;2023-04-09T00:53:41;102698.28;;;10.87;67.27
71384;BME280;67558;52.166;5.004;2023-04-09T00:56:09;102699.03;;;10.94;67.28
71384;BME280;67558;52.166;5.004;2023-04-09T00:58:35;102701.03;;;10.99;67.32
71384;BME280;67558;52.166;5.004;2023-04-09T01:01:00;102695.31;;;10.95;67.28
71384;BME280;67558;52.166;5.004;2023-04-09T01:03:47;102706.38;;;10.99;67.23
71384;BME280;67558;52.166;5.004;2023-04-09T01:09:53;102702.84;;;11.05;67.29
71384;BME280;67558;52.166;5.004;2023-04-09T01:12:37;102693.63;;;11.19;66.86
71384;BME280;67558;52.166;5.004;2023-04-09T01:15:09;102687.81;;;11.04;67.05
71384;BME280;67558;52.166;5.004;2023-04-09T01:17:49;102690.25;;;11.05;67.30
71384;BME280;67558;52.166;5.004;2023-04-09T01:20:41;102692.13;;;11.05;67.16
71384;BME280;67558;52.166;5.004;2023-04-09T01:32:59;102681.88;;;11.02;66.82
71384;BME280;67558;52.166;5.004;2023-04-09T01:35:26;102677.47;;;11.07;66.98
71384;BME280;67558;52.166;5.004;2023-04-09T01:38:16;102694.72;;;11.12;67.00
71384;BME280;67558;52.166;5.004;2023-04-09T01:40:47;102688.19;;;11.07;67.03
71384;BME280;67558;52.166;5.004;2023-04-09T01:43:14;102687.28;;;11.14;67.00
71384;BME280;67558;52.166;5.004;2023-04-09T01:45:41;102680.72;;;11.10;66.93
71384;BME280;67558;52.166;5.004;2023-04-09T01:48:19;102679.50;;;11.12;67.00
71384;BME280;67558;52.166;5.004;2023-04-09T01:51:28;102686.84;;;11.17;66.80
71384;BME280;67558;52.166;5.004;2023-04-09T01:53:52;102686.94;;;11.10;66.94
71384;BME280;67558;52.166;5.004;2023-04-09T01:56:17;102683.59;;;11.15;66.95
71384;BME280;67558;52.166;5.004;2023-04-09T01:58:42;102687.66;;;11.17;67.04
71384;BME280;67558;52.166;5.004;2023-04-09T02:04:32;102692.94;;;11.24;67.10
71384;BME280;67558;52.166;5.004;2023-04-09T02:07:02;102686.69;;;11.30;66.81
71384;BME280;67558;52.166;5.004;2023-04-09T02:09:35;102684.38;;;11.52;66.05
71384;BME280;67558;52.166;5.004;2023-04-09T02:12:06;102665.22;;;11.48;65.77
71384;BME280;67558;52.166;5.004;2023-04-09T02:14:47;102682.34;;;11.66;65.59
71384;BME280;67558;52.166;5.004;2023-04-09T02:17:45;102681.06;;;11.68;65.38
71384;BME280;67558;52.166;5.004;2023-04-09T02:20:19;102682.47;;;11.71;65.33
71384;BME280;67558;52.166;5.004;2023-04-09T02:22:54;102681.19;;;11.74;65.20
71384;BME280;67558;52.166;5.004;2023-04-09T02:25:21;102682.56;;;11.64;65.48
71384;BME280;67558;52.166;5.004;2023-04-09T02:27:46;102680.47;;;11.66;65.36
71384;BME280;67558;52.166;5.004;2023-04-09T02:30:11;102675.84;;;11.74;65.07
71384;BME280;67558;52.166;5.004;2023-04-09T02:32:37;102670.03;;;11.77;65.14
71384;BME280;67558;52.166;5.004;2023-04-09T02:35:02;102689.41;;;11.79;64.82
71384;BME280;67558;52.166;5.004;2023-04-09T02:37:28;102677.84;;;11.78;64.85
71384;BME280;67558;52.166;5.004;2023-04-09T02:39:53;102672.94;;;11.75;64.87
71384;BME280;67558;52.166;5.004;2023-04-09T02:42:21;102671.53;;;11.73;64.96
71384;BME280;67558;52.166;5.004;2023-04-09T02:44:46;102674.81;;;11.75;64.86
71384;BME280;67558;52.166;5.004;2023-04-09T02:47:11;102660.91;;;11.66;65.08
71384;BME280;67558;52.166;5.004;2023-04-09T02:49:37;102653.94;;;11.46;65.29
71384;BME280;67558;52.166;5.004;2023-04-09T02:52:05;102657.53;;;11.40;66.05
71384;BME280;67558;52.166;5.004;2023-04-09T02:54:31;102651.56;;;11.38;66.01
71384;BME280;67558;52.166;5.004;2023-04-09T03:00:01;102655.19;;;11.44;66.03
71384;BME280;67558;52.166;5.004;2023-04-09T03:02:32;102663.00;;;11.45;65.97
71384;BME280;67558;52.166;5.004;2023-04-09T03:05:00;102643.28;;;11.40;66.13
71384;BME280;67558;52.166;5.004;2023-04-09T03:07:29;102636.91;;;11.41;65.89
71384;BME280;67558;52.166;5.004;2023-04-09T03:10:03;102649.16;;;11.48;66.01
71384;BME280;67558;52.166;5.004;2023-04-09T03:12:28;102646.47;;;11.48;65.68
71384;BME280;67558;52.166;5.004;2023-04-09T03:14:53;102641.69;;;11.51;65.78
71384;BME280;67558;52.166;5.004;2023-04-09T03:17:19;102644.25;;;11.45;65.99
71384;BME280;67558;52.166;5.004;2023-04-09T03:19:44;102646.03;;;11.52;66.07
71384;BME280;67558;52.166;5.004;2023-04-09T03:22:15;102636.44;;;11.44;65.65
71384;BME280;67558;52.166;5.004;2023-04-09T03:24:41;102641.09;;;11.48;65.75
71384;BME280;67558;52.166;5.004;2023-04-09T03:30:23;102635.75;;;11.48;65.63
71384;BME280;67558;52.166;5.004;2023-04-09T03:32:48;102630.84;;;11.45;65.59
71384;BME280;67558;52.166;5.004;2023-04-09T03:38:35;102643.56;;;11.50;65.73
71384;BME280;67558;52.166;5.004;2023-04-09T03:41:00;102632.03;;;11.50;65.42
71384;BME280;67558;52.166;5.004;2023-04-09T03:43:26;102634.50;;;11.51;65.56
71384;BME280;67558;52.166;5.004;2023-04-09T03:45:51;102631.56;;;11.53;65.58
71384;BME280;67558;52.166;5.004;2023-04-09T03:48:31;102631.56;;;11.53;65.56
71384;BME280;67558;52.166;5.004;2023-04-09T03:50:56;102629.97;;;11.52;65.52
71384;BME280;67558;52.166;5.004;2023-04-09T03:53:22;102631.34;;;11.54;65.41
71384;BME280;67558;52.166;5.004;2023-04-09T03:55:47;102615.97;;;11.50;65.25
71384;BME280;67558;52.166;5.004;2023-04-09T03:58:12;102616.56;;;11.52;65.60
71384;BME280;67558;52.166;5.004;2023-04-09T04:00:38;102616.34;;;11.53;65.63
71384;BME280;67558;52.166;5.004;2023-04-09T04:06:18;102613.88;;;11.52;65.44
71384;BME280;67558;52.166;5.004;2023-04-09T04:08:48;102616.34;;;11.53;65.24
71384;BME280;67558;52.166;5.004;2023-04-09T04:11:24;102614.47;;;11.54;65.41
71384;BME280;67558;52.166;5.004;2023-04-09T04:13:56;102553.97;;;11.16;65.46
71384;BME280;67558;52.166;5.004;2023-04-09T04:16:51;102605.25;;;11.50;65.62
71384;BME280;67558;52.166;5.004;2023-04-09T04:19:36;102606.28;;;11.48;65.56
71384;BME280;67558;52.166;5.004;2023-04-09T04:22:06;102609.78;;;11.49;65.55
71384;BME280;67558;52.166;5.004;2023-04-09T04:24:31;102612.69;;;11.47;65.56
71384;BME280;67558;52.166;5.004;2023-04-09T04:26:56;102599.38;;;11.41;65.74
71384;BME280;67558;52.166;5.004;2023-04-09T04:29:22;102610.00;;;11.47;65.85
71384;BME280;67558;52.166;5.004;2023-04-09T04:31:49;102602.88;;;11.41;65.64
71384;BME280;67558;52.166;5.004;2023-04-09T04:34:15;102595.75;;;11.35;65.46
71384;BME280;67558;52.166;5.004;2023-04-09T04:37:00;102603.47;;;11.43;65.58
71384;BME280;67558;52.166;5.004;2023-04-09T04:39:34;102604.28;;;11.44;65.74
71384;BME280;67558;52.166;5.004;2023-04-09T04:42:05;102606.16;;;11.43;65.70
71384;BME280;67558;52.166;5.004;2023-04-09T04:44:37;102603.34;;;11.38;65.54
71384;BME280;67558;52.166;5.004;2023-04-09T04:47:40;102614.41;;;11.42;65.62
71384;BME280;67558;52.166;5.004;2023-04-09T04:50:54;102612.19;;;11.39;65.40
71384;BME280;67558;52.166;5.004;2023-04-09T04:53:19;102616.50;;;11.40;65.54
71384;BME280;67558;52.166;5.004;2023-04-09T04:55:45;102612.41;;;11.37;65.52
71384;BME280;67558;52.166;5.004;2023-04-09T05:01:57;102608.44;;;11.40;65.66
71384;BME280;67558;52.166;5.004;2023-04-09T05:11:26;102616.88;;;11.43;65.61
71384;BME280;67558;52.166;5.004;2023-04-09T05:14:15;102613.38;;;11.43;65.55
71384;BME280;67558;52.166;5.004;2023-04-09T05:17:33;102611.38;;;11.38;65.52
71384;BME280;67558;52.166;5.004;2023-04-09T05:20:01;102609.97;;;11.36;65.49
71384;BME280;67558;52.166;5.004;2023-04-09T05:22:26;102593.69;;;11.19;65.53
71384;BME280;67558;52.166;5.004;2023-04-09T05:24:52;102602.34;;;11.21;65.51
71384;BME280;67558;52.166;5.004;2023-04-09T05:27:45;102620.53;;;11.31;65.61
71384;BME280;67558;52.166;5.004;2023-04-09T05:30:10;102613.78;;;11.28;65.60
71384;BME280;67558;52.166;5.004;2023-04-09T05:32:36;102614.59;;;11.28;65.67
71384;BME280;67558;52.166;5.004;2023-04-09T05:35:22;102606.41;;;11.23;65.62
71384;BME280;67558;52.166;5.004;2023-04-09T05:37:53;102630.56;;;11.35;65.62
71384;BME280;67558;52.166;5.004;2023-04-09T05:40:20;102624.31;;;11.41;65.37
71384;BME280;67558;52.166;5.004;2023-04-09T05:42:51;102625.97;;;11.42;65.62
71384;BME280;67558;52.166;5.004;2023-04-09T05:45:23;102622.00;;;11.45;65.74
71384;BME280;67558;52.166;5.004;2023-04-09T05:51:35;102627.97;;;11.47;65.59
71384;BME280;67558;52.166;5.004;2023-04-09T05:54:01;102622.94;;;11.51;65.54
71384;BME280;67558;52.166;5.004;2023-04-09T05:56:27;102621.91;;;11.52;65.32
71384;BME280;67558;52.166;5.004;2023-04-09T05:58:53;102626.22;;;11.53;65.33
71384;BME280;67558;52.166;5.004;2023-04-09T06:01:18;102630.75;;;11.52;65.43
71384;BME280;67558;52.166;5.004;2023-04-09T06:03:49;102638.00;;;11.52;65.14
71384;BME280;67558;52.166;5.004;2023-04-09T06:06:22;102627.50;;;11.50;65.29
71384;BME280;67558;52.166;5.004;2023-04-09T06:08:59;102642.69;;;11.56;65.33
71384;BME280;67558;52.166;5.004;2023-04-09T06:11:48;102639.19;;;11.56;65.26
71384;BME280;67558;52.166;5.004;2023-04-09T06:14:14;102631.13;;;11.56;65.39
71384;BME280;67558;52.166;5.004;2023-04-09T06:19:31;102632.41;;;11.53;65.41
71384;BME280;67558;52.166;5.004;2023-04-09T06:22:45;102630.53;;;11.54;65.32
71384;BME280;67558;52.166;5.004;2023-04-09T06:25:06;102634.41;;;11.58;65.21
71384;BME280;67558;52.166;5.004;2023-04-09T06:27:36;102651.22;;;11.65;65.09
71384;BME280;67558;52.166;5.004;2023-04-09T06:30:08;102643.03;;;11.60;65.19
71384;BME280;67558;52.166;5.004;2023-04-09T06:32:33;102643.63;;;11.62;65.17
71384;BME280;67558;52.166;5.004;2023-04-09T06:34:58;102649.94;;;11.67;64.87
71384;BME280;67558;52.166;5.004;2023-04-09T06:37:24;102644.34;;;11.69;65.03
71384;BME280;67558;52.166;5.004;2023-04-09T06:43:37;102654.03;;;11.70;64.65
71384;BME280;67558;52.166;5.004;2023-04-09T06:46:05;102645.97;;;11.70;64.45
71384;BME280;67558;52.166;5.004;2023-04-09T06:48:31;102643.97;;;11.65;64.43
71384;BME280;67558;52.166;5.004;2023-04-09T06:50:56;102632.75;;;11.57;64.48
71384;BME280;67558;52.166;5.004;2023-04-09T06:56:16;102655.16;;;11.62;64.35
71384;BME280;67558;52.166;5.004;2023-04-09T06:58:41;102649.22;;;11.60;64.25
71384;BME280;67558;52.166;5.004;2023-04-09T07:01:06;102651.44;;;11.63;64.22
71384;BME280;67558;52.166;5.004;2023-04-09T07:03:55;102655.38;;;11.61;63.62
71384;BME280;67558;52.166;5.004;2023-04-09T07:10:06;102659.94;;;11.60;63.82
71384;BME280;67558;52.166;5.004;2023-04-09T07:13:00;102660.41;;;11.57;63.38
71384;BME280;67558;52.166;5.004;2023-04-09T07:15:58;102663.44;;;11.61;63.49
71384;BME280;67558;52.166;5.004;2023-04-09T07:18:23;102657.38;;;11.65;63.65
71384;BME280;67558;52.166;5.004;2023-04-09T07:24:19;102663.34;;;11.67;63.28
71384;BME280;67558;52.166;5.004;2023-04-09T07:26:52;102658.56;;;11.69;63.17
71384;BME280;67558;52.166;5.004;2023-04-09T07:29:18;102663.72;;;11.71;63.22
71384;BME280;67558;52.166;5.004;2023-04-09T07:31:44;102655.66;;;11.71;63.09
71384;BME280;67558;52.166;5.004;2023-04-09T07:37:24;102655.13;;;11.81;63.27
71384;BME280;67558;52.166;5.004;2023-04-09T07:39:58;102653.84;;;11.83;63.12
71384;BME280;67558;52.166;5.004;2023-04-09T07:42:40;102656.06;;;11.86;62.76
71384;BME280;67558;52.166;5.004;2023-04-09T07:45:13;102656.88;;;11.87;62.54
71384;BME280;67558;52.166;5.004;2023-04-09T07:51:05;102650.88;;;11.92;62.90
71384;BME280;67558;52.166;5.004;2023-04-09T07:53:36;102649.59;;;11.94;62.51
71384;BME280;67558;52.166;5.004;2023-04-09T07:56:02;102656.50;;;12.02;62.43
71384;BME280;67558;52.166;5.004;2023-04-09T07:58:27;102652.31;;;12.06;62.37
71384;BME280;67558;52.166;5.004;2023-04-09T08:00:52;102650.22;;;12.08;62.43
71384;BME280;67558;52.166;5.004;2023-04-09T08:03:18;102654.66;;;12.14;62.12
71384;BME280;67558;52.166;5.004;2023-04-09T08:06:06;102657.00;;;12.22;61.73
71384;BME280;67558;52.166;5.004;2023-04-09T08:08:47;102655.72;;;12.25;61.94
71384;BME280;67558;52.166;5.004;2023-04-09T08:11:12;102629.44;;;12.15;62.05
71384;BME280;67558;52.166;5.004;2023-04-09T08:13:40;102655.16;;;12.35;61.56
71384;BME280;67558;52.166;5.004;2023-04-09T08:16:05;102650.94;;;12.39;61.55
71384;BME280;67558;52.166;5.004;2023-04-09T08:18:31;102649.91;;;12.40;61.52
71384;BME280;67558;52.166;5.004;2023-04-09T08:21:06;102658.78;;;12.52;61.14
71384;BME280;67558;52.166;5.004;2023-04-09T08:23:44;102641.63;;;12.53;61.23
71384;BME280;67558;52.166;5.004;2023-04-09T08:26:16;102649.09;;;12.63;61.25
71384;BME280;67558;52.166;5.004;2023-04-09T08:28:47;102654.69;;;12.73;61.22
71384;BME280;67558;52.166;5.004;2023-04-09T08:31:13;102646.75;;;12.78;61.08
71384;BME280;67558;52.166;5.004;2023-04-09T08:33:38;102629.72;;;12.73;60.93
71384;BME280;67558;52.166;5.004;2023-04-09T08:36:07;102639.97;;;12.87;60.48
71384;BME280;67558;52.166;5.004;2023-04-09T08:38:33;102638.31;;;12.98;60.50
71384;BME280;67558;52.166;5.004;2023-04-09T08:43:57;102651.84;;;13.15;59.99
71384;BME280;67558;52.166;5.004;2023-04-09T08:46:23;102650.06;;;13.21;59.59
71384;BME280;67558;52.166;5.004;2023-04-09T08:48:50;102649.50;;;13.19;59.47
71384;BME280;67558;52.166;5.004;2023-04-09T08:51:19;102651.22;;;13.25;59.28
71384;BME280;67558;52.166;5.004;2023-04-09T08:53:53;102647.25;;;13.27;59.09
71384;BME280;67558;52.166;5.004;2023-04-09T08:56:19;102645.03;;;13.36;59.11
71384;BME280;67558;52.166;5.004;2023-04-09T08:58:48;102648.47;;;13.48;58.90
71384;BME280;67558;52.166;5.004;2023-04-09T09:01:25;102631.72;;;13.58;58.78
71384;BME280;67558;52.166;5.004;2023-04-09T09:04:05;102639.59;;;13.77;58.23
71384;BME280;67558;52.166;5.004;2023-04-09T09:06:36;102637.41;;;13.90;58.13
71384;BME280;67558;52.166;5.004;2023-04-09T09:09:05;102645.72;;;14.06;58.38
71384;BME280;67558;52.166;5.004;2023-04-09T09:11:34;102594.03;;;13.87;57.77
71384;BME280;67558;52.166;5.004;2023-04-09T09:14:10;102573.19;;;13.94;57.42
71384;BME280;67558;52.166;5.004;2023-04-09T09:16:38;102628.66;;;14.51;57.42
71384;BME280;67558;52.166;5.004;2023-04-09T09:19:08;102628.91;;;14.66;56.85
71384;BME280;67558;52.166;5.004;2023-04-09T09:21:33;102634.06;;;14.68;56.60
71384;BME280;67558;52.166;5.004;2023-04-09T09:24:00;102633.63;;;14.76;56.56
71384;BME280;67558;52.166;5.004;2023-04-09T09:26:27;102634.25;;;14.83;55.90
71384;BME280;67558;52.166;5.004;2023-04-09T09:28:54;102620.56;;;14.85;55.56
71384;BME280;67558;52.166;5.004;2023-04-09T09:31:21;102626.81;;;14.90;55.37
71384;BME280;67558;52.166;5.004;2023-04-09T09:33:47;102625.56;;;14.98;55.35
71384;BME280;67558;52.166;5.004;2023-04-09T09:36:30;102609.16;;;15.00;54.99
71384;BME280;67558;52.166;5.004;2023-04-09T09:38:57;102622.25;;;15.13;55.06
71384;BME280;67558;52.166;5.004;2023-04-09T09:41:26;102616.66;;;15.20;54.96
71384;BME280;67558;52.166;5.004;2023-04-09T09:43:52;102605.19;;;15.29;54.33
71384;BME280;67558;52.166;5.004;2023-04-09T09:46:17;102614.19;;;15.40;54.21
71384;BME280;67558;52.166;5.004;2023-04-09T09:48:45;102605.41;;;15.55;54.19
71384;BME280;67558;52.166;5.004;2023-04-09T09:51:11;102606.47;;;15.76;53.81
71384;BME280;67558;52.166;5.004;2023-04-09T09:53:39;102606.59;;;15.91;52.81
71384;BME280;67558;52.166;5.004;2023-04-09T09:56:09;102603.19;;;16.01;52.86
71384;BME280;67558;52.166;5.004;2023-04-09T09:58:40;102594.28;;;16.06;52.63
71384;BME280;67558;52.166;5.004;2023-04-09T10:01:08;102597.84;;;16.11;52.41
71384;BME280;67558;52.166;5.004;2023-04-09T10:03:36;102580.00;;;16.05;52.46
71384;BME280;67558;52.166;5.004;2023-04-09T10:06:04;102580.81;;;16.11;52.42
71384;BME280;67558;52.166;5.004;2023-04-09T10:08:30;102577.63;;;16.14;52.27
71384;BME280;67558;52.166;5.004;2023-04-09T10:10:59;102568.19;;;16.16;52.76
71384;BME280;67558;52.166;5.004;2023-04-09T10:13:28;102572.00;;;16.26;52.30
71384;BME280;67558;52.166;5.004;2023-04-09T10:15:57;102565.03;;;16.30;52.00
71384;BME280;67558;52.166;5.004;2023-04-09T10:18:23;102571.56;;;16.39;51.72
71384;BME280;67558;52.166;5.004;2023-04-09T10:21:00;102561.59;;;16.45;50.94
71384;BME280;67558;52.166;5.004;2023-04-09T10:23:42;102567.06;;;16.55;50.53
71384;BME280;67558;52.166;5.004;2023-04-09T10:26:08;102556.44;;;16.43;51.40
71384;BME280;67558;52.166;5.004;2023-04-09T10:28:36;102559.44;;;16.42;51.64
71384;BME280;67558;52.166;5.004;2023-04-09T10:31:03;102557.53;;;16.37;51.09
71384;BME280;67558;52.166;5.004;2023-04-09T10:33:29;102552.31;;;16.30;51.40
71384;BME280;67558;52.166;5.004;2023-04-09T10:35:59;102550.16;;;16.22;51.30
71384;BME280;67558;52.166;5.004;2023-04-09T10:38:35;102545.78;;;16.16;51.00
71384;BME280;67558;52.166;5.004;2023-04-09T10:41:13;102547.94;;;16.19;51.21
71384;BME280;67558;52.166;5.004;2023-04-09T10:43:39;102542.03;;;16.22;51.13
71384;BME280;67558;52.166;5.004;2023-04-09T10:46:17;102533.97;;;16.27;51.07
71384;BME280;67558;52.166;5.004;2023-04-09T10:48:48;102537.00;;;16.41;51.02
71384;BME280;67558;52.166;5.004;2023-04-09T10:51:17;102525.13;;;16.47;50.76
71384;BME280;67558;52.166;5.004;2023-04-09T10:53:43;102533.84;;;16.65;50.76
71384;BME280;67558;52.166;5.004;2023-04-09T10:56:14;102533.59;;;16.66;50.45
71384;BME280;67558;52.166;5.004;2023-04-09T10:58:41;102540.13;;;16.75;50.51
71384;BME280;67558;52.166;5.004;2023-04-09T11:01:06;102526.59;;;16.75;50.27
71384;BME280;67558;52.166;5.004;2023-04-09T11:03:35;102535.59;;;16.81;50.45
71384;BME280;67558;52.166;5.004;2023-04-09T11:06:08;102531.81;;;16.82;50.25
71384;BME280;67558;52.166;5.004;2023-04-09T11:08:35;102531.56;;;16.89;50.31
71384;BME280;67558;52.166;5.004;2023-04-09T11:11:02;102522.91;;;16.97;50.07
71384;BME280;67558;52.166;5.004;2023-04-09T11:13:28;102522.69;;;17.04;50.07
71384;BME280;67558;52.166;5.004;2023-04-09T11:15:54;102519.44;;;17.12;50.02
71384;BME280;67558;52.166;5.004;2023-04-09T11:18:28;102510.78;;;17.10;48.37
71384;BME280;67558;52.166;5.004;2023-04-09T11:20:58;102507.25;;;17.09;49.53
71384;BME280;67558;52.166;5.004;2023-04-09T11:23:24;102516.22;;;17.20;49.72
71384;BME280;67558;52.166;5.004;2023-04-09T11:25:50;102510.53;;;17.27;49.93
71384;BME280;67558;52.166;5.004;2023-04-09T11:28:17;102514.88;;;17.28;49.37
71384;BME280;67558;52.166;5.004;2023-04-09T11:30:42;102506.50;;;17.34;49.42
71384;BME280;67558;52.166;5.004;2023-04-09T11:33:08;102495.94;;;17.33;49.03
71384;BME280;67558;52.166;5.004;2023-04-09T11:35:34;102507.31;;;17.45;49.03
71384;BME280;67558;52.166;5.004;2023-04-09T11:38:07;102502.69;;;17.51;48.93
71384;BME280;67558;52.166;5.004;2023-04-09T11:40:32;102507.84;;;17.52;48.75
71384;BME280;67558;52.166;5.004;2023-04-09T11:42:58;102510.53;;;17.52;48.74
71384;BME280;67558;52.166;5.004;2023-04-09T11:45:26;102510.56;;;17.47;48.34
71384;BME280;67558;52.166;5.004;2023-04-09T11:47:52;102500.53;;;17.37;48.20
71384;BME280;67558;52.166;5.004;2023-04-09T11:50:18;102501.59;;;17.31;48.49
71384;BME280;67558;52.166;5.004;2023-04-09T11:52:44;102498.63;;;17.23;48.38
71384;BME280;67558;52.166;5.004;2023-04-09T11:55:11;102484.56;;;17.10;48.48
71384;BME280;67558;52.166;5.004;2023-04-09T11:57:38;102486.44;;;17.10;47.89
71384;BME280;67558;52.166;5.004;2023-04-09T12:00:09;102485.63;;;16.89;48.19
71384;BME280;67558;52.166;5.004;2023-04-09T12:02:44;102496.88;;;16.75;48.66
71384;BME280;67558;52.166;5.004;2023-04-09T12:05:21;102497.53;;;16.98;47.78
71384;BME280;67558;52.166;5.004;2023-04-09T12:07:47;102492.13;;;16.98;48.03
71384;BME280;67558;52.166;5.004;2023-04-09T12:10:12;102490.47;;;16.97;47.76
71384;BME280;67558;52.166;5.004;2023-04-09T12:12:45;102488.88;;;16.96;47.63
71384;BME280;67558;52.166;5.004;2023-04-09T12:17:46;102491.53;;;16.81;47.97
71384;BME280;67558;52.166;5.004;2023-04-09T12:20:11;102487.72;;;16.71;48.52
71384;BME280;67558;52.166;5.004;2023-04-09T12:22:37;102494.19;;;16.75;48.12
71384;BME280;67558;52.166;5.004;2023-04-09T12:25:05;102497.97;;;16.74;47.41
71384;BME280;67558;52.166;5.004;2023-04-09T12:27:31;102495.25;;;16.69;47.82
71384;BME280;67558;52.166;5.004;2023-04-09T12:29:56;102487.38;;;16.57;47.92
71384;BME280;67558;52.166;5.004;2023-04-09T12:32:21;102494.13;;;16.55;47.62
71384;BME280;67558;52.166;5.004;2023-04-09T12:34:47;102494.38;;;16.53;47.61
71384;BME280;67558;52.166;5.004;2023-04-09T12:37:14;102481.41;;;16.50;47.90
71384;BME280;67558;52.166;5.004;2023-04-09T12:39:39;102493.59;;;16.58;48.08
71384;BME280;67558;52.166;5.004;2023-04-09T12:42:05;102482.78;;;16.53;48.01
71384;BME280;67558;52.166;5.004;2023-04-09T12:44:30;102495.22;;;16.59;48.09
71384;BME280;67558;52.166;5.004;2023-04-09T12:46:57;102485.50;;;16.63;47.96
71384;BME280;67558;52.166;5.004;2023-04-09T12:49:22;102490.94;;;16.73;48.02
71384;BME280;67558;52.166;5.004;2023-04-09T12:51:48;102487.16;;;16.74;48.08
71384;BME280;67558;52.166;5.004;2023-04-09T12:54:13;102477.69;;;16.77;47.83
71384;BME280;67558;52.166;5.004;2023-04-09T12:56:39;102478.84;;;16.81;47.25
71384;BME280;67558;52.166;5.004;2023-04-09T12:59:04;102486.94;;;16.81;47.08
71384;BME280;67558;52.166;5.004;2023-04-09T13:01:30;102489.06;;;16.79;47.53
71384;BME280;67558;52.166;5.004;2023-04-09T13:03:55;102486.06;;;16.75;46.92
71384;BME280;67558;52.166;5.004;2023-04-09T13:06:21;102479.31;;;16.73;47.06
71384;BME280;67558;52.166;5.004;2023-04-09T13:08:47;102479.59;;;16.71;47.31
71384;BME280;67558;52.166;5.004;2023-04-09T13:11:12;102490.41;;;16.76;46.99
71384;BME280;67558;52.166;5.004;2023-04-09T13:13:37;102489.06;;;16.79;46.80
71384;BME280;67558;52.166;5.004;2023-04-09T13:16:03;102483.38;;;16.75;47.00
71384;BME280;67558;52.166;5.004;2023-04-09T13:18:28;102477.66;;;16.67;46.80
71384;BME280;67558;52.166;5.004;2023-04-09T13:20:53;102470.66;;;16.61;46.42
71384;BME280;67558;52.166;5.004;2023-04-09T13:23:19;102471.72;;;16.65;46.84
71384;BME280;67558;52.166;5.004;2023-04-09T13:25:44;102478.22;;;16.64;46.33
71384;BME280;67558;52.166;5.004;2023-04-09T13:28:10;102476.06;;;16.71;46.16
71384;BME280;67558;52.166;5.004;2023-04-09T13:30:35;102467.16;;;16.75;46.44
71384;BME280;67558;52.166;5.004;2023-04-09T13:33:00;102458.31;;;16.80;45.99
71384;BME280;67558;52.166;5.004;2023-04-09T13:35:26;102459.66;;;16.88;45.86
71384;BME280;67558;52.166;5.004;2023-04-09T13:37:51;102459.69;;;16.98;45.76
71384;BME280;67558;52.166;5.004;2023-04-09T13:40:17;102459.97;;;17.02;45.67
71384;BME280;67558;52.166;5.004;2023-04-09T13:42:42;102443.19;;;16.99;45.04
71384;BME280;67558;52.166;5.004;2023-04-09T13:45:08;102454.28;;;17.08;44.85
71384;BME280;67558;52.166;5.004;2023-04-09T13:47:33;102448.31;;;17.11;44.56
71384;BME280;67558;52.166;5.004;2023-04-09T13:49:59;102442.94;;;17.16;44.50
71384;BME280;67558;52.166;5.004;2023-04-09T13:52:24;102437.53;;;17.22;44.47
71384;BME280;67558;52.166;5.004;2023-04-09T13:54:50;102440.78;;;17.34;44.07
71384;BME280;67558;52.166;5.004;2023-04-09T13:57:17;102428.31;;;17.33;44.25
71384;BME280;67558;52.166;5.004;2023-04-09T13:59:42;102436.97;;;17.45;44.05
71384;BME280;67558;52.166;5.004;2023-04-09T14:02:08;102413.16;;;17.42;43.74
71384;BME280;67558;52.166;5.004;2023-04-09T14:04:33;102418.84;;;17.56;43.81
71384;BME280;67558;52.166;5.004;2023-04-09T14:06:58;102413.94;;;17.63;44.10
71384;BME280;67558;52.166;5.004;2023-04-09T14:09:24;102412.31;;;17.67;43.86
71384;BME280;67558;52.166;5.004;2023-04-09T14:11:49;102419.09;;;17.65;43.75
71384;BME280;67558;52.166;5.004;2023-04-09T14:14:15;102419.91;;;17.60;44.01
71384;BME280;67558;52.166;5.004;2023-04-09T14:16:41;102420.75;;;17.55;43.87
71384;BME280;67558;52.166;5.004;2023-04-09T14:19:06;102407.22;;;17.45;43.65
71384;BME280;67558;52.166;5.004;2023-04-09T14:21:34;102418.03;;;17.40;43.68
71384;BME280;67558;52.166;5.004;2023-04-09T14:24:00;102418.31;;;17.28;43.83
71384;BME280;67558;52.166;5.004;2023-04-09T14:26:25;102412.63;;;17.25;44.00
71384;BME280;67558;52.166;5.004;2023-04-09T14:28:51;102414.81;;;17.17;44.13
71384;BME280;67558;52.166;5.004;2023-04-09T14:31:16;102408.84;;;17.05;43.88